Portada
METAR-TAF:

METAR-TAF

Aeropuertos :

Payerne, Suiza

latitud: 46-49N, longitud: 006-57E, altitud: 490 m

Observación

El informe se hizo hace 35 minutos, a las 07:20 UTC
Viento 1 kt con dirección variable
Temperatura 1°C
Humedad 86%
Presión 1027 hPa
Visibilidad 10 km o más
sin nubes por debajo de 1500 m y sin presencia de cumulonimbus.

METAR: LSMP 280720Z VRB01KT CAVOK 01/M01 Q1027 RMK BLU

Hora: 09:55 (07:55 UTC)


TAF: falta

Observaciones y pronósticos meteorológicos de más de 4000 aeropuertos (mensajes METAR y TAF).

Los puntos amarillos y rojos representan las estaciones disponibles.

Ponga el ratón en el punto deseado para ver el nombre de la estación.

Haga clic para ver las observaciones y los pronósticos meteorológicos.

Para cambiar el mapa : haga clic en los botones verdes con una cruz de color negro para hacer un zoom, en el botón verde con un guión para alejar o en las flechas verdes para mapas adyacentes.


METAR-TAF: